Terminal Aerodrome Forecast
Issued by NWS

Home | Current Version | Previous Version | Text Only | Print | Product List | Glossary On
Versions: 1 2 3 4 5 6 7 8 9 10 11 12 13 14 15 16 17
000
FTUS43 KGLD 261129 AAB
TAFMCK
TAF AMD
KMCK 261129Z 2611/2712 VRB05KT 6SM BR BKN090
     FM261500 05007KT P6SM BKN080
     FM261900 07011G16KT P6SM VCTS BKN080CB
     FM262300 04011G16KT 5SM -TSRA BKN050CB
     FM270300 33014G21KT 5SM -TSRA OVC040CB
     FM270500 02010KT P6SM VCTS BKN060CB
     FM270900 02007KT P6SM BKN008=

USA.gov is the U.S. government's official web portal to all federal, state and local government web resources and services.